KHKA

Blytheville Municipal Airport

Blytheville, Arkansas, USA
METAR KHKA 151853Z AUTO 05015KT 4SM -RA OVC075 03/M01 A2991 RMK AO2 SLP129 P0003 T00281006
Observed Flight Rules
Feb-15 @ 18:53 UTC (an hour ago) Marginal Visual Flight Rules
Wind Visibility Clouds Conditions
50° at 15 knots 4 miles
  • Overcast at 7,500' AGL
  • Light Rain
Temperatures Readings Precipitation
Current 3°C / 37°F
Dewpoint -1°C / 30°F
Humidity 75%
Altimeter 29.91" Hg
Pressure 1012.9 hPa
Elevation 78
Current Rain 0.03
METAR KHKA 151853Z AUTO 05015KT 4SM -RA OVC075 03/M01 A2991 RMK AO2 SLP129 P0003 T00281006
Observed Flight Rules
Feb-15 @ 18:53 UTC
(an hour ago)
MVFR
Wind Visibility
50° at 15 knots 4 miles
Clouds
  • Overcast at 7,500' AGL
Conditions
  • Light Rain
Temperature Dewpoint
3°C / 37°F -1°C / 30°F
Humidity Altimeter Pressure
75% 29.91" Hg 1012.9 hPa
Current Rain
0.03